ITY28P BIKF-CYYT
Flight info
| Callsign | ITY28P |
|---|---|
| Flight time | N/A |
| Altitude | 37000 |
| Route | DELES2C DELES DCT 62N030W 60N035W 57N040W 54N045W 50N050W DCT MIVAD AVALN5 |
| Aircraft | A359/H-SDE2E3GHIJ1J3J4J5LM1ORWXY/LB1D1 |
Departure
| Time | N/A |
|---|---|
| Airport | Keflavik International Airport (BIKF) |
Arrival
| Time | 2026-04-29 19:14 |
|---|---|
| Airport | St. John's International Airport (CYYT) |
| Time | Latitude | Longitude | Altitude | Speed | Heading |
|---|---|---|---|---|---|
| 2026-04-29 16:16 | 62.98881 | -26.56243 | 36838 ft | 443 kts | 237° |
| 2026-04-29 16:17 | 62.97322 | -26.62087 | 36846 ft | 443 kts | 237° |
| 2026-04-29 16:17 | 62.94196 | -26.73767 | 36844 ft | 443 kts | 237° |
| 2026-04-29 16:18 | 62.91081 | -26.85346 | 36840 ft | 443 kts | 237° |
| 2026-04-29 16:18 | 62.87939 | -26.96967 | 36838 ft | 443 kts | 237° |
| 2026-04-29 16:19 | 62.84786 | -27.08563 | 36855 ft | 443 kts | 237° |
| 2026-04-29 16:19 | 62.81610 | -27.20183 | 36837 ft | 446 kts | 237° |
| 2026-04-29 16:20 | 62.78415 | -27.31813 | 36835 ft | 446 kts | 237° |
| 2026-04-29 16:20 | 62.75232 | -27.43341 | 36832 ft | 446 kts | 237° |
| 2026-04-29 16:21 | 62.72019 | -27.54920 | 36833 ft | 446 kts | 236° |
| 2026-04-29 16:21 | 62.68796 | -27.66475 | 36833 ft | 446 kts | 236° |
| 2026-04-29 16:22 | 62.65559 | -27.78018 | 36827 ft | 448 kts | 237° |
| 2026-04-29 16:22 | 62.62321 | -27.89505 | 36826 ft | 449 kts | 236° |
| 2026-04-29 16:23 | 62.59046 | -28.01067 | 36823 ft | 449 kts | 236° |
| 2026-04-29 16:23 | 62.55764 | -28.12595 | 36824 ft | 449 kts | 236° |
| 2026-04-29 16:24 | 62.52474 | -28.24091 | 36823 ft | 449 kts | 236° |
| 2026-04-29 16:24 | 62.49192 | -28.35501 | 36827 ft | 450 kts | 236° |
| 2026-04-29 16:25 | 62.45866 | -28.47005 | 36822 ft | 452 kts | 236° |
| 2026-04-29 16:25 | 62.42525 | -28.58504 | 36823 ft | 452 kts | 236° |
| 2026-04-29 16:26 | 62.39175 | -28.69979 | 36830 ft | 452 kts | 236° |
| 2026-04-29 16:26 | 62.35813 | -28.81433 | 36830 ft | 452 kts | 236° |
| 2026-04-29 16:27 | 62.32467 | -28.92776 | 36832 ft | 452 kts | 236° |
| 2026-04-29 16:27 | 62.29078 | -29.04206 | 36828 ft | 454 kts | 236° |
| 2026-04-29 16:28 | 62.25671 | -29.15640 | 36826 ft | 455 kts | 236° |
| 2026-04-29 16:28 | 62.22253 | -29.27059 | 36826 ft | 455 kts | 236° |
| 2026-04-29 16:29 | 62.18827 | -29.38441 | 36826 ft | 455 kts | 236° |
| 2026-04-29 16:29 | 62.15413 | -29.49730 | 36836 ft | 455 kts | 236° |
| 2026-04-29 16:30 | 62.11961 | -29.61084 | 36824 ft | 457 kts | 236° |
| 2026-04-29 16:30 | 62.08489 | -29.72453 | 36818 ft | 456 kts | 236° |
| 2026-04-29 16:31 | 62.05017 | -29.83764 | 36823 ft | 456 kts | 236° |
| 2026-04-29 16:31 | 62.01561 | -29.94965 | 36823 ft | 456 kts | 236° |
| 2026-04-29 16:32 | 61.98012 | -30.06136 | 36825 ft | 455 kts | 233° |
| 2026-04-29 16:32 | 61.94135 | -30.16802 | 36825 ft | 457 kts | 231° |
| 2026-04-29 16:33 | 61.88254 | -30.32630 | 36825 ft | 458 kts | 232° |
| 2026-04-29 16:33 | 61.84351 | -30.43294 | 36834 ft | 458 kts | 232° |
| 2026-04-29 16:34 | 61.80457 | -30.53953 | 36833 ft | 458 kts | 232° |
| 2026-04-29 16:34 | 61.76554 | -30.64592 | 36836 ft | 458 kts | 232° |
| 2026-04-29 16:35 | 61.72670 | -30.75123 | 36830 ft | 458 kts | 232° |
| 2026-04-29 16:35 | 61.68749 | -30.85702 | 36833 ft | 458 kts | 232° |
| 2026-04-29 16:36 | 61.64820 | -30.96252 | 36832 ft | 458 kts | 231° |
| 2026-04-29 16:36 | 61.60886 | -31.06767 | 36835 ft | 458 kts | 231° |
| 2026-04-29 16:37 | 61.56967 | -31.17194 | 36836 ft | 458 kts | 232° |
| 2026-04-29 16:37 | 61.53653 | -31.25974 | 36832 ft | 459 kts | 232° |
| 2026-04-29 16:38 | 61.49032 | -31.38162 | 36832 ft | 460 kts | 231° |
| 2026-04-29 16:38 | 61.45047 | -31.48623 | 36835 ft | 460 kts | 231° |
| 2026-04-29 16:39 | 61.41082 | -31.58981 | 36843 ft | 460 kts | 231° |
| 2026-04-29 16:39 | 61.37081 | -31.69388 | 36843 ft | 460 kts | 231° |
| 2026-04-29 16:40 | 61.33065 | -31.79783 | 36847 ft | 461 kts | 231° |
| 2026-04-29 16:40 | 61.29029 | -31.90188 | 36847 ft | 462 kts | 231° |
| 2026-04-29 16:41 | 61.25012 | -32.00493 | 36853 ft | 462 kts | 231° |
| 2026-04-29 16:41 | 61.20958 | -32.10848 | 36849 ft | 462 kts | 231° |
| 2026-04-29 16:42 | 61.16898 | -32.21170 | 36849 ft | 462 kts | 231° |
| 2026-04-29 16:42 | 61.12818 | -32.31495 | 36852 ft | 464 kts | 231° |
| 2026-04-29 16:43 | 61.08750 | -32.41747 | 36852 ft | 464 kts | 231° |
| 2026-04-29 16:43 | 61.04642 | -32.52051 | 36857 ft | 465 kts | 231° |
| 2026-04-29 16:44 | 61.00529 | -32.62323 | 36854 ft | 465 kts | 231° |
| 2026-04-29 16:44 | 60.96407 | -32.72573 | 36853 ft | 464 kts | 231° |
| 2026-04-29 16:45 | 60.92305 | -32.82722 | 36865 ft | 465 kts | 231° |
| 2026-04-29 16:45 | 60.88160 | -32.92935 | 36865 ft | 465 kts | 231° |
| 2026-04-29 16:46 | 60.84008 | -33.03121 | 36867 ft | 465 kts | 231° |
| 2026-04-29 16:46 | 60.79848 | -33.13281 | 36866 ft | 465 kts | 231° |
| 2026-04-29 16:47 | 60.75705 | -33.23353 | 36866 ft | 465 kts | 231° |
| 2026-04-29 16:47 | 60.71522 | -33.33477 | 36867 ft | 467 kts | 231° |
| 2026-04-29 16:48 | 60.67320 | -33.43604 | 36873 ft | 467 kts | 231° |
| 2026-04-29 16:48 | 60.63112 | -33.53702 | 36872 ft | 467 kts | 231° |
| 2026-04-29 16:49 | 60.58896 | -33.63771 | 36873 ft | 467 kts | 231° |
| 2026-04-29 16:49 | 60.54698 | -33.73755 | 36864 ft | 467 kts | 231° |
| 2026-04-29 16:50 | 60.50459 | -33.83792 | 36875 ft | 469 kts | 231° |
| 2026-04-29 16:50 | 60.46205 | -33.93822 | 36875 ft | 469 kts | 231° |
| 2026-04-29 16:51 | 60.41945 | -34.03820 | 36881 ft | 469 kts | 231° |
| 2026-04-29 16:51 | 60.37706 | -34.13726 | 36881 ft | 469 kts | 231° |
| 2026-04-29 16:52 | 60.33426 | -34.23684 | 36879 ft | 469 kts | 231° |
| 2026-04-29 16:52 | 60.29135 | -34.33626 | 36881 ft | 471 kts | 231° |
| 2026-04-29 16:53 | 60.24827 | -34.43564 | 36886 ft | 471 kts | 231° |
| 2026-04-29 16:53 | 60.20543 | -34.53402 | 36887 ft | 471 kts | 231° |
| 2026-04-29 16:54 | 60.16219 | -34.63290 | 36889 ft | 471 kts | 231° |
| 2026-04-29 16:54 | 60.11889 | -34.73149 | 36895 ft | 472 kts | 231° |
| 2026-04-29 16:55 | 60.07542 | -34.83006 | 36903 ft | 472 kts | 231° |
| 2026-04-29 16:55 | 60.03211 | -34.92780 | 36903 ft | 473 kts | 231° |
| 2026-04-29 16:56 | 59.98702 | -35.02367 | 36906 ft | 474 kts | 227° |
| 2026-04-29 16:56 | 59.93922 | -35.11452 | 36906 ft | 475 kts | 226° |
| 2026-04-29 16:57 | 59.89090 | -35.20436 | 36907 ft | 476 kts | 226° |
| 2026-04-29 16:57 | 59.84264 | -35.29364 | 36908 ft | 477 kts | 226° |
| 2026-04-29 16:58 | 59.79403 | -35.38341 | 36911 ft | 477 kts | 226° |
| 2026-04-29 16:58 | 59.74537 | -35.47300 | 36919 ft | 477 kts | 226° |
| 2026-04-29 16:59 | 59.69668 | -35.56231 | 36925 ft | 477 kts | 226° |
| 2026-04-29 16:59 | 59.64822 | -35.65082 | 36924 ft | 477 kts | 226° |
| 2026-04-29 17:00 | 59.59939 | -35.73961 | 36933 ft | 477 kts | 226° |
| 2026-04-29 17:00 | 59.55046 | -35.82822 | 36938 ft | 477 kts | 226° |
| 2026-04-29 17:01 | 59.50151 | -35.91653 | 36936 ft | 477 kts | 226° |
| 2026-04-29 17:01 | 59.45278 | -36.00405 | 36936 ft | 477 kts | 226° |
| 2026-04-29 17:02 | 59.40361 | -36.09204 | 36960 ft | 479 kts | 226° |
| 2026-04-29 17:02 | 59.35426 | -36.17997 | 36967 ft | 479 kts | 226° |
| 2026-04-29 17:03 | 59.30481 | -36.26769 | 36968 ft | 479 kts | 226° |
| 2026-04-29 17:03 | 59.25530 | -36.35518 | 36972 ft | 480 kts | 226° |
| 2026-04-29 17:04 | 59.20608 | -36.44180 | 36960 ft | 480 kts | 226° |
| 2026-04-29 17:04 | 59.15635 | -36.52897 | 36977 ft | 481 kts | 226° |
| 2026-04-29 17:05 | 59.10656 | -36.61588 | 36983 ft | 481 kts | 226° |
| 2026-04-29 17:05 | 59.05676 | -36.70245 | 36992 ft | 480 kts | 226° |
| 2026-04-29 17:06 | 59.00726 | -36.78815 | 36993 ft | 480 kts | 226° |
| 2026-04-29 17:06 | 58.95735 | -36.87425 | 36993 ft | 481 kts | 226° |
| 2026-04-29 17:07 | 58.90722 | -36.96036 | 36995 ft | 482 kts | 226° |
| 2026-04-29 17:07 | 58.85703 | -37.04621 | 37001 ft | 482 kts | 226° |
| 2026-04-29 17:08 | 58.80711 | -37.13125 | 37020 ft | 482 kts | 226° |
| 2026-04-29 17:08 | 58.75674 | -37.21672 | 37003 ft | 482 kts | 226° |
| 2026-04-29 17:09 | 58.70622 | -37.30213 | 37026 ft | 484 kts | 226° |
| 2026-04-29 17:09 | 58.65556 | -37.38741 | 37025 ft | 484 kts | 226° |
| 2026-04-29 17:10 | 58.60515 | -37.47192 | 37036 ft | 485 kts | 226° |
| 2026-04-29 17:10 | 58.55431 | -37.55681 | 37037 ft | 485 kts | 225° |
| 2026-04-29 17:11 | 58.50340 | -37.64149 | 37053 ft | 485 kts | 226° |
| 2026-04-29 17:11 | 58.45236 | -37.72605 | 37057 ft | 486 kts | 226° |
| 2026-04-29 17:12 | 58.40156 | -37.80987 | 37064 ft | 486 kts | 226° |
| 2026-04-29 17:12 | 58.35865 | -37.88041 | 37064 ft | 486 kts | 226° |
| 2026-04-29 17:13 | 58.29904 | -37.97803 | 37030 ft | 486 kts | 226° |
| 2026-04-29 17:13 | 58.24771 | -38.06173 | 37081 ft | 487 kts | 226° |
| 2026-04-29 17:14 | 58.19624 | -38.14530 | 37079 ft | 487 kts | 226° |
| 2026-04-29 17:14 | 58.14507 | -38.22808 | 37095 ft | 487 kts | 226° |
| 2026-04-29 17:15 | 58.09347 | -38.31123 | 37094 ft | 487 kts | 226° |
| 2026-04-29 17:15 | 58.04183 | -38.39409 | 37097 ft | 487 kts | 226° |
| 2026-04-29 17:16 | 57.99053 | -38.47611 | 37111 ft | 486 kts | 226° |
| 2026-04-29 17:16 | 57.93883 | -38.55845 | 37109 ft | 486 kts | 226° |
| 2026-04-29 17:17 | 57.88712 | -38.64048 | 37106 ft | 487 kts | 226° |
| 2026-04-29 17:17 | 57.83531 | -38.72235 | 37070 ft | 487 kts | 226° |
| 2026-04-29 17:18 | 57.78382 | -38.80339 | 37133 ft | 486 kts | 226° |
| 2026-04-29 17:18 | 57.73198 | -38.88469 | 37132 ft | 486 kts | 226° |
| 2026-04-29 17:19 | 57.68012 | -38.96571 | 37140 ft | 486 kts | 226° |
| 2026-04-29 17:19 | 57.62815 | -39.04658 | 37140 ft | 486 kts | 226° |
| 2026-04-29 17:20 | 57.57647 | -39.12668 | 37140 ft | 487 kts | 226° |
| 2026-04-29 17:20 | 57.52437 | -39.20708 | 37149 ft | 487 kts | 226° |
| 2026-04-29 17:21 | 57.47213 | -39.28743 | 37151 ft | 488 kts | 226° |
| 2026-04-29 17:21 | 57.41979 | -39.36764 | 37159 ft | 488 kts | 226° |
| 2026-04-29 17:22 | 57.36772 | -39.44711 | 37159 ft | 488 kts | 226° |
| 2026-04-29 17:22 | 57.31520 | -39.52696 | 37168 ft | 488 kts | 226° |
| 2026-04-29 17:23 | 57.26267 | -39.60653 | 37168 ft | 488 kts | 225° |
| 2026-04-29 17:23 | 57.21005 | -39.68593 | 37173 ft | 488 kts | 225° |
| 2026-04-29 17:24 | 57.15775 | -39.76455 | 37178 ft | 489 kts | 225° |
| 2026-04-29 17:24 | 57.10502 | -39.84352 | 37187 ft | 489 kts | 225° |
| 2026-04-29 17:25 | 57.05216 | -39.92239 | 37182 ft | 489 kts | 225° |
| 2026-04-29 17:25 | 56.99994 | -40.00220 | 37195 ft | 485 kts | 230° |
| 2026-04-29 17:26 | 56.95223 | -40.08808 | 37198 ft | 483 kts | 231° |
| 2026-04-29 17:26 | 56.90498 | -40.17570 | 37179 ft | 483 kts | 232° |
| 2026-04-29 17:27 | 56.85774 | -40.26338 | 37203 ft | 484 kts | 232° |
| 2026-04-29 17:27 | 56.81032 | -40.35079 | 37204 ft | 485 kts | 231° |
| 2026-04-29 17:28 | 56.76307 | -40.43739 | 37211 ft | 485 kts | 231° |
| 2026-04-29 17:28 | 56.71544 | -40.52430 | 37211 ft | 485 kts | 231° |
| 2026-04-29 17:29 | 56.66774 | -40.61103 | 37218 ft | 485 kts | 231° |
| 2026-04-29 17:29 | 56.62801 | -40.68303 | 37221 ft | 485 kts | 231° |
| 2026-04-29 17:30 | 56.57202 | -40.78409 | 37220 ft | 486 kts | 231° |
| 2026-04-29 17:30 | 56.52441 | -40.86968 | 37211 ft | 486 kts | 231° |
| 2026-04-29 17:31 | 56.47630 | -40.95588 | 37221 ft | 487 kts | 231° |
| 2026-04-29 17:31 | 56.42808 | -41.04192 | 37229 ft | 487 kts | 231° |
| 2026-04-29 17:32 | 56.38008 | -41.12723 | 37231 ft | 487 kts | 231° |
| 2026-04-29 17:32 | 56.33172 | -41.21286 | 37236 ft | 487 kts | 231° |
| 2026-04-29 17:33 | 56.28327 | -41.29834 | 37237 ft | 487 kts | 231° |
| 2026-04-29 17:33 | 56.23482 | -41.38350 | 37237 ft | 487 kts | 231° |
| 2026-04-29 17:34 | 56.18668 | -41.46779 | 37238 ft | 487 kts | 231° |
| 2026-04-29 17:34 | 56.13813 | -41.55251 | 37238 ft | 487 kts | 231° |
| 2026-04-29 17:35 | 56.06522 | -41.67913 | 37233 ft | 487 kts | 231° |
| 2026-04-29 17:36 | 56.01656 | -41.76324 | 37247 ft | 486 kts | 231° |
| 2026-04-29 17:36 | 55.96819 | -41.84655 | 37247 ft | 486 kts | 230° |
| 2026-04-29 17:37 | 55.91947 | -41.93016 | 37246 ft | 486 kts | 230° |
| 2026-04-29 17:37 | 55.87063 | -42.01366 | 37236 ft | 486 kts | 230° |
| 2026-04-29 17:38 | 55.82181 | -42.09682 | 37249 ft | 486 kts | 230° |
| 2026-04-29 17:38 | 55.77292 | -42.17979 | 37254 ft | 486 kts | 230° |
| 2026-04-29 17:39 | 55.72433 | -42.26196 | 37251 ft | 486 kts | 230° |
| 2026-04-29 17:39 | 55.67534 | -42.34451 | 37259 ft | 486 kts | 230° |
| 2026-04-29 17:40 | 55.62627 | -42.42688 | 37261 ft | 486 kts | 230° |
| 2026-04-29 17:40 | 55.57720 | -42.50898 | 37255 ft | 486 kts | 230° |
| 2026-04-29 17:41 | 55.52837 | -42.59037 | 37261 ft | 486 kts | 230° |
| 2026-04-29 17:41 | 55.47917 | -42.67208 | 37259 ft | 486 kts | 230° |
| 2026-04-29 17:42 | 55.42991 | -42.75359 | 37264 ft | 486 kts | 230° |
| 2026-04-29 17:42 | 55.38058 | -42.83492 | 37266 ft | 486 kts | 230° |
| 2026-04-29 17:43 | 55.33153 | -42.91551 | 37262 ft | 486 kts | 230° |
| 2026-04-29 17:43 | 55.28213 | -42.99639 | 37267 ft | 487 kts | 229° |
| 2026-04-29 17:44 | 55.23244 | -43.07747 | 37268 ft | 489 kts | 229° |
| 2026-04-29 17:44 | 55.18259 | -43.15847 | 37270 ft | 489 kts | 229° |
| 2026-04-29 17:45 | 55.13268 | -43.23929 | 37270 ft | 489 kts | 229° |
| 2026-04-29 17:45 | 55.08308 | -43.31933 | 37274 ft | 489 kts | 229° |
| 2026-04-29 17:46 | 55.03306 | -43.39976 | 37277 ft | 489 kts | 229° |
| 2026-04-29 17:46 | 54.98299 | -43.47999 | 37272 ft | 489 kts | 229° |
| 2026-04-29 17:47 | 54.93288 | -43.56000 | 37274 ft | 489 kts | 229° |
| 2026-04-29 17:47 | 54.88309 | -43.63924 | 37279 ft | 489 kts | 229° |
| 2026-04-29 17:48 | 54.83288 | -43.71884 | 37249 ft | 489 kts | 228° |
| 2026-04-29 17:48 | 54.78261 | -43.79827 | 37281 ft | 489 kts | 228° |
| 2026-04-29 17:49 | 54.73227 | -43.87753 | 37281 ft | 489 kts | 228° |
| 2026-04-29 17:49 | 54.68187 | -43.95659 | 37283 ft | 489 kts | 228° |
| 2026-04-29 17:50 | 54.63177 | -44.03493 | 37256 ft | 489 kts | 228° |
| 2026-04-29 17:50 | 54.58123 | -44.11367 | 37284 ft | 490 kts | 228° |
| 2026-04-29 17:51 | 54.53063 | -44.19224 | 37284 ft | 490 kts | 227° |
| 2026-04-29 17:51 | 54.47994 | -44.27066 | 37283 ft | 490 kts | 227° |
| 2026-04-29 17:52 | 54.42956 | -44.34832 | 37285 ft | 490 kts | 227° |
| 2026-04-29 17:52 | 54.37879 | -44.42634 | 37291 ft | 490 kts | 227° |
| 2026-04-29 17:53 | 54.32794 | -44.50420 | 37292 ft | 490 kts | 227° |
| 2026-04-29 17:53 | 54.27704 | -44.58186 | 37293 ft | 490 kts | 227° |
| 2026-04-29 17:54 | 54.22641 | -44.65888 | 37291 ft | 493 kts | 227° |
| 2026-04-29 17:54 | 54.17464 | -44.73757 | 37286 ft | 502 kts | 227° |
| 2026-04-29 17:55 | 54.12208 | -44.81691 | 37290 ft | 507 kts | 226° |
| 2026-04-29 17:55 | 54.06905 | -44.89658 | 37291 ft | 509 kts | 226° |
| 2026-04-29 17:56 | 54.01614 | -44.97586 | 37294 ft | 511 kts | 226° |
| 2026-04-29 17:56 | 53.96232 | -45.05490 | 37299 ft | 513 kts | 224° |
| 2026-04-29 17:57 | 53.90705 | -45.13163 | 37299 ft | 514 kts | 224° |
| 2026-04-29 17:57 | 53.85160 | -45.20797 | 37301 ft | 514 kts | 224° |
| 2026-04-29 17:58 | 53.79629 | -45.28451 | 37278 ft | 513 kts | 224° |
| 2026-04-29 17:58 | 53.74145 | -45.36047 | 37303 ft | 514 kts | 224° |
| 2026-04-29 17:59 | 53.68610 | -45.43693 | 37306 ft | 514 kts | 224° |
| 2026-04-29 17:59 | 53.63069 | -45.51319 | 37303 ft | 514 kts | 224° |
| 2026-04-29 18:00 | 53.57524 | -45.58923 | 37299 ft | 514 kts | 223° |
| 2026-04-29 18:00 | 53.51970 | -45.66511 | 37311 ft | 514 kts | 223° |
| 2026-04-29 18:01 | 53.46448 | -45.74030 | 37307 ft | 515 kts | 223° |
| 2026-04-29 18:01 | 53.40880 | -45.81584 | 37306 ft | 515 kts | 223° |
| 2026-04-29 18:02 | 53.35311 | -45.89115 | 37295 ft | 515 kts | 223° |
| 2026-04-29 18:02 | 53.29734 | -45.96631 | 37304 ft | 515 kts | 223° |
| 2026-04-29 18:03 | 53.24188 | -46.04077 | 37308 ft | 515 kts | 223° |
| 2026-04-29 18:03 | 53.18601 | -46.11554 | 37307 ft | 515 kts | 223° |
| 2026-04-29 18:04 | 53.13002 | -46.19021 | 37306 ft | 515 kts | 223° |
| 2026-04-29 18:04 | 53.08350 | -46.25206 | 37318 ft | 515 kts | 223° |
| 2026-04-29 18:05 | 53.01839 | -46.33832 | 37315 ft | 515 kts | 223° |
| 2026-04-29 18:05 | 52.96219 | -46.41251 | 37316 ft | 517 kts | 223° |
| 2026-04-29 18:06 | 52.90590 | -46.48657 | 37317 ft | 517 kts | 222° |
| 2026-04-29 18:06 | 52.84945 | -46.56058 | 37318 ft | 518 kts | 222° |
| 2026-04-29 18:07 | 52.79332 | -46.63391 | 37318 ft | 518 kts | 222° |
| 2026-04-29 18:07 | 52.73676 | -46.70755 | 37319 ft | 518 kts | 222° |
| 2026-04-29 18:08 | 52.68011 | -46.78107 | 37319 ft | 518 kts | 222° |
| 2026-04-29 18:08 | 52.62341 | -46.85441 | 37320 ft | 518 kts | 221° |
| 2026-04-29 18:09 | 52.56702 | -46.92708 | 37325 ft | 518 kts | 221° |
| 2026-04-29 18:09 | 52.51025 | -47.00001 | 37324 ft | 518 kts | 221° |
| 2026-04-29 18:10 | 52.45338 | -47.07284 | 37330 ft | 519 kts | 221° |
| 2026-04-29 18:10 | 52.39643 | -47.14549 | 37330 ft | 519 kts | 221° |
| 2026-04-29 18:11 | 52.33982 | -47.21749 | 37330 ft | 519 kts | 221° |
| 2026-04-29 18:11 | 52.28277 | -47.28980 | 37333 ft | 519 kts | 221° |
| 2026-04-29 18:12 | 52.22566 | -47.36194 | 37333 ft | 519 kts | 220° |
| 2026-04-29 18:12 | 52.16854 | -47.43385 | 37333 ft | 519 kts | 220° |
| 2026-04-29 18:13 | 52.11172 | -47.50516 | 37332 ft | 519 kts | 220° |
| 2026-04-29 18:13 | 52.05447 | -47.57675 | 37340 ft | 519 kts | 220° |
| 2026-04-29 18:14 | 51.99719 | -47.64815 | 37341 ft | 519 kts | 220° |
| 2026-04-29 18:14 | 51.93986 | -47.71937 | 37347 ft | 520 kts | 220° |
| 2026-04-29 18:15 | 51.88240 | -47.79056 | 37344 ft | 520 kts | 220° |
| 2026-04-29 18:15 | 51.82524 | -47.86110 | 37346 ft | 520 kts | 219° |
| 2026-04-29 18:16 | 51.76764 | -47.93194 | 37346 ft | 520 kts | 219° |
| 2026-04-29 18:16 | 51.71001 | -48.00261 | 37337 ft | 520 kts | 219° |
| 2026-04-29 18:17 | 51.65275 | -48.07261 | 37352 ft | 520 kts | 219° |
| 2026-04-29 18:17 | 51.59509 | -48.14284 | 37358 ft | 520 kts | 219° |
| 2026-04-29 18:18 | 51.53738 | -48.21290 | 37357 ft | 520 kts | 219° |
| 2026-04-29 18:18 | 51.48934 | -48.27106 | 37353 ft | 520 kts | 219° |
| 2026-04-29 18:19 | 51.43162 | -48.34073 | 37359 ft | 519 kts | 219° |
| 2026-04-29 18:19 | 51.36445 | -48.42152 | 37360 ft | 519 kts | 219° |
| 2026-04-29 18:20 | 51.30665 | -48.49080 | 37363 ft | 519 kts | 218° |
| 2026-04-29 18:20 | 51.25855 | -48.54827 | 37361 ft | 519 kts | 218° |
| 2026-04-29 18:21 | 51.20077 | -48.61712 | 37361 ft | 519 kts | 218° |
| 2026-04-29 18:21 | 51.13354 | -48.69696 | 37366 ft | 519 kts | 218° |
| 2026-04-29 18:22 | 51.08546 | -48.75386 | 37362 ft | 519 kts | 218° |
| 2026-04-29 18:22 | 51.02754 | -48.82222 | 37363 ft | 518 kts | 218° |
| 2026-04-29 18:23 | 50.96957 | -48.89042 | 37367 ft | 518 kts | 218° |
| 2026-04-29 18:23 | 50.91157 | -48.95843 | 37373 ft | 518 kts | 218° |
| 2026-04-29 18:24 | 50.85391 | -49.02584 | 37367 ft | 519 kts | 218° |
| 2026-04-29 18:24 | 50.79574 | -49.09361 | 37366 ft | 519 kts | 218° |
| 2026-04-29 18:25 | 50.73752 | -49.16125 | 37385 ft | 519 kts | 218° |
| 2026-04-29 18:25 | 50.67928 | -49.22868 | 37380 ft | 519 kts | 217° |
| 2026-04-29 18:26 | 50.62140 | -49.29549 | 37381 ft | 519 kts | 217° |
| 2026-04-29 18:26 | 50.56316 | -49.36251 | 37385 ft | 519 kts | 217° |
| 2026-04-29 18:27 | 50.50485 | -49.42940 | 37384 ft | 519 kts | 217° |
| 2026-04-29 18:27 | 50.44651 | -49.49612 | 37384 ft | 518 kts | 217° |
| 2026-04-29 18:28 | 50.38822 | -49.56257 | 37381 ft | 518 kts | 217° |
| 2026-04-29 18:28 | 50.33025 | -49.62845 | 37381 ft | 518 kts | 217° |
| 2026-04-29 18:29 | 50.27187 | -49.69459 | 37381 ft | 518 kts | 216° |
| 2026-04-29 18:29 | 50.21351 | -49.76050 | 37385 ft | 518 kts | 216° |
| 2026-04-29 18:30 | 50.15514 | -49.82623 | 37378 ft | 517 kts | 216° |
| 2026-04-29 18:30 | 50.09709 | -49.89139 | 37392 ft | 517 kts | 216° |
| 2026-04-29 18:31 | 50.03869 | -49.95675 | 37386 ft | 517 kts | 216° |
| 2026-04-29 18:31 | 49.98524 | -50.03045 | 37387 ft | 515 kts | 231° |
| 2026-04-29 18:32 | 49.93982 | -50.11649 | 37388 ft | 515 kts | 232° |
| 2026-04-29 18:32 | 49.87264 | -50.24550 | 37387 ft | 515 kts | 231° |
| 2026-04-29 18:33 | 49.82764 | -50.33168 | 37385 ft | 514 kts | 231° |
| 2026-04-29 18:33 | 49.78256 | -50.41776 | 37384 ft | 514 kts | 231° |
| 2026-04-29 18:34 | 49.74519 | -50.48891 | 37385 ft | 505 kts | 231° |
| 2026-04-29 18:34 | 49.69446 | -50.58519 | 37386 ft | 483 kts | 231° |
| 2026-04-29 18:35 | 49.65139 | -50.66665 | 37376 ft | 496 kts | 231° |
| 2026-04-29 18:35 | 49.60769 | -50.74908 | 37380 ft | 496 kts | 231° |
| 2026-04-29 18:36 | 49.56400 | -50.83120 | 37378 ft | 495 kts | 231° |
| 2026-04-29 18:36 | 49.52056 | -50.91260 | 37378 ft | 495 kts | 230° |
| 2026-04-29 18:37 | 49.47680 | -50.99435 | 37377 ft | 495 kts | 230° |
| 2026-04-29 18:37 | 49.43299 | -51.07595 | 37377 ft | 495 kts | 230° |
| 2026-04-29 18:38 | 49.38911 | -51.15741 | 37373 ft | 495 kts | 230° |
| 2026-04-29 18:38 | 49.34555 | -51.23804 | 37374 ft | 494 kts | 230° |
| 2026-04-29 18:39 | 49.30163 | -51.31908 | 37377 ft | 494 kts | 230° |
| 2026-04-29 18:39 | 49.25769 | -51.39991 | 37375 ft | 494 kts | 230° |
| 2026-04-29 18:40 | 49.21366 | -51.48065 | 37377 ft | 494 kts | 230° |
| 2026-04-29 18:40 | 49.16989 | -51.56068 | 37375 ft | 494 kts | 230° |
| 2026-04-29 18:41 | 49.08157 | -51.72143 | 37372 ft | 494 kts | 229° |
| 2026-04-29 18:42 | 49.03738 | -51.80149 | 37374 ft | 493 kts | 229° |
| 2026-04-29 18:42 | 48.99345 | -51.88083 | 37366 ft | 493 kts | 229° |
| 2026-04-29 18:43 | 48.94918 | -51.96056 | 37371 ft | 493 kts | 229° |
| 2026-04-29 18:43 | 48.90491 | -52.04005 | 37369 ft | 492 kts | 229° |
| 2026-04-29 18:44 | 48.86064 | -52.11931 | 37366 ft | 491 kts | 229° |
| 2026-04-29 18:44 | 48.81667 | -52.19778 | 37362 ft | 491 kts | 229° |
| 2026-04-29 18:45 | 48.77236 | -52.27663 | 37362 ft | 491 kts | 229° |
| 2026-04-29 18:45 | 48.72801 | -52.35531 | 37361 ft | 491 kts | 229° |
| 2026-04-29 18:46 | 48.68365 | -52.43378 | 37357 ft | 490 kts | 229° |
| 2026-04-29 18:46 | 48.63955 | -52.51155 | 37357 ft | 490 kts | 228° |
| 2026-04-29 18:47 | 48.59508 | -52.58975 | 37358 ft | 490 kts | 228° |
| 2026-04-29 18:47 | 48.55061 | -52.66774 | 37350 ft | 490 kts | 228° |
| 2026-04-29 18:48 | 48.50604 | -52.74564 | 37348 ft | 490 kts | 228° |
| 2026-04-29 18:48 | 48.46171 | -52.82292 | 37349 ft | 490 kts | 227° |
| 2026-04-29 18:49 | 48.41708 | -52.90049 | 37345 ft | 490 kts | 227° |
| 2026-04-29 18:49 | 48.37245 | -52.97783 | 37347 ft | 489 kts | 228° |
| 2026-04-29 18:50 | 48.32781 | -53.05495 | 37347 ft | 489 kts | 227° |
| 2026-04-29 18:50 | 48.28320 | -53.13181 | 37178 ft | 487 kts | 228° |
| 2026-04-29 18:51 | 48.26121 | -53.16963 | 36922 ft | 487 kts | 227° |
| 2026-04-29 18:51 | 48.23891 | -53.20791 | 36646 ft | 488 kts | 227° |
| 2026-04-29 18:51 | 48.21663 | -53.24612 | 36245 ft | 484 kts | 227° |
| 2026-04-29 18:51 | 48.19447 | -53.28404 | 35584 ft | 483 kts | 227° |
| 2026-04-29 18:52 | 48.17237 | -53.32183 | 34836 ft | 483 kts | 227° |
| 2026-04-29 18:52 | 48.15013 | -53.35978 | 33985 ft | 486 kts | 227° |
| 2026-04-29 18:52 | 48.12779 | -53.39783 | 33129 ft | 487 kts | 227° |
| 2026-04-29 18:52 | 48.10544 | -53.43586 | 32275 ft | 488 kts | 227° |
| 2026-04-29 18:53 | 48.08299 | -53.47402 | 31408 ft | 489 kts | 227° |
| 2026-04-29 18:53 | 48.06075 | -53.51176 | 30526 ft | 492 kts | 227° |
| 2026-04-29 18:53 | 48.03804 | -53.55024 | 29492 ft | 494 kts | 227° |
| 2026-04-29 18:53 | 48.01530 | -53.58874 | 28710 ft | 492 kts | 227° |
| 2026-04-29 18:54 | 47.99278 | -53.62680 | 28080 ft | 486 kts | 227° |
| 2026-04-29 18:54 | 47.97049 | -53.66442 | 27437 ft | 482 kts | 228° |
| 2026-04-29 18:54 | 47.94840 | -53.70165 | 26790 ft | 478 kts | 228° |
| 2026-04-29 18:54 | 47.92646 | -53.73856 | 26126 ft | 474 kts | 227° |
| 2026-04-29 18:55 | 47.90469 | -53.77513 | 25491 ft | 470 kts | 228° |
| 2026-04-29 18:55 | 47.88337 | -53.81092 | 24850 ft | 466 kts | 228° |
| 2026-04-29 18:55 | 47.86193 | -53.84684 | 24216 ft | 462 kts | 228° |
| 2026-04-29 18:55 | 47.84067 | -53.88242 | 23540 ft | 458 kts | 228° |
| 2026-04-29 18:56 | 47.81960 | -53.91765 | 22869 ft | 452 kts | 228° |
| 2026-04-29 18:56 | 47.79882 | -53.95235 | 22242 ft | 446 kts | 228° |
| 2026-04-29 18:56 | 47.77828 | -53.98660 | 21633 ft | 441 kts | 227° |
| 2026-04-29 18:56 | 47.75801 | -54.02037 | 21007 ft | 435 kts | 227° |
| 2026-04-29 18:57 | 47.73795 | -54.05372 | 20376 ft | 430 kts | 227° |
| 2026-04-29 18:57 | 47.71787 | -54.08634 | 19777 ft | 425 kts | 224° |
| 2026-04-29 18:57 | 47.69537 | -54.11296 | 19269 ft | 416 kts | 209° |
| 2026-04-29 18:57 | 47.66903 | -54.12938 | 18681 ft | 409 kts | 193° |
| 2026-04-29 18:58 | 47.64100 | -54.13394 | 18025 ft | 403 kts | 177° |
| 2026-04-29 18:58 | 47.61369 | -54.12693 | 17412 ft | 397 kts | 161° |
| 2026-04-29 18:58 | 47.58888 | -54.10961 | 16589 ft | 396 kts | 146° |
| 2026-04-29 18:58 | 47.56833 | -54.08276 | 15899 ft | 393 kts | 130° |
| 2026-04-29 18:59 | 47.55349 | -54.04922 | 15280 ft | 388 kts | 115° |
| 2026-04-29 18:59 | 47.54522 | -54.01159 | 14676 ft | 383 kts | 100° |
| 2026-04-29 18:59 | 47.54383 | -53.97310 | 14078 ft | 379 kts | 85° |
| 2026-04-29 18:59 | 47.54920 | -53.93521 | 13442 ft | 375 kts | 71° |
| 2026-04-29 19:00 | 47.56066 | -53.90091 | 12858 ft | 370 kts | 58° |
| 2026-04-29 19:00 | 47.57509 | -53.86969 | 12249 ft | 365 kts | 55° |
| 2026-04-29 19:00 | 47.58979 | -53.83933 | 11672 ft | 360 kts | 55° |
| 2026-04-29 19:00 | 47.60425 | -53.80936 | 11100 ft | 356 kts | 55° |
| 2026-04-29 19:01 | 47.61837 | -53.77988 | 10796 ft | 339 kts | 56° |
| 2026-04-29 19:01 | 47.63132 | -53.75275 | 10699 ft | 306 kts | 56° |
| 2026-04-29 19:01 | 47.64310 | -53.72799 | 10594 ft | 285 kts | 56° |
| 2026-04-29 19:01 | 47.65408 | -53.70483 | 10498 ft | 272 kts | 56° |
| 2026-04-29 19:02 | 47.66472 | -53.68236 | 10401 ft | 262 kts | 56° |
| 2026-04-29 19:02 | 47.67161 | -53.66777 | 10311 ft | 260 kts | 56° |
| 2026-04-29 19:02 | 47.68549 | -53.63832 | 10144 ft | 261 kts | 56° |
| 2026-04-29 19:02 | 47.69589 | -53.61625 | 10009 ft | 261 kts | 56° |
| 2026-04-29 19:03 | 47.70561 | -53.59296 | 9864 ft | 273 kts | 63° |
| 2026-04-29 19:03 | 47.71301 | -53.56667 | 9754 ft | 276 kts | 73° |
| 2026-04-29 19:03 | 47.71700 | -53.53929 | 9269 ft | 276 kts | 83° |
| 2026-04-29 19:03 | 47.71886 | -53.51105 | 8875 ft | 274 kts | 86° |
| 2026-04-29 19:04 | 47.72036 | -53.48288 | 8562 ft | 273 kts | 86° |
| 2026-04-29 19:04 | 47.72186 | -53.45484 | 8267 ft | 271 kts | 86° |
| 2026-04-29 19:04 | 47.72338 | -53.42703 | 7973 ft | 270 kts | 86° |
| 2026-04-29 19:04 | 47.72494 | -53.39930 | 7675 ft | 268 kts | 86° |
| 2026-04-29 19:05 | 47.72651 | -53.37180 | 7378 ft | 267 kts | 86° |
| 2026-04-29 19:05 | 47.72807 | -53.34441 | 7087 ft | 265 kts | 86° |
| 2026-04-29 19:05 | 47.72956 | -53.31752 | 6796 ft | 264 kts | 87° |
| 2026-04-29 19:05 | 47.73097 | -53.29043 | 6498 ft | 262 kts | 87° |
| 2026-04-29 19:06 | 47.73241 | -53.26352 | 6186 ft | 261 kts | 87° |
| 2026-04-29 19:06 | 47.73390 | -53.23676 | 5895 ft | 259 kts | 87° |
| 2026-04-29 19:06 | 47.73679 | -53.18387 | 5334 ft | 255 kts | 87° |
| 2026-04-29 19:07 | 47.73825 | -53.15768 | 5059 ft | 254 kts | 87° |
| 2026-04-29 19:07 | 47.73922 | -53.14038 | 4848 ft | 253 kts | 87° |
| 2026-04-29 19:07 | 47.74114 | -53.10554 | 4453 ft | 253 kts | 87° |
| 2026-04-29 19:07 | 47.74258 | -53.07949 | 4170 ft | 254 kts | 88° |
| 2026-04-29 19:08 | 47.74399 | -53.05378 | 3952 ft | 251 kts | 88° |
| 2026-04-29 19:08 | 47.74538 | -53.02860 | 3804 ft | 238 kts | 88° |
| 2026-04-29 19:08 | 47.74671 | -53.00471 | 3704 ft | 226 kts | 88° |
| 2026-04-29 19:08 | 47.74795 | -52.98199 | 3609 ft | 215 kts | 87° |
| 2026-04-29 19:09 | 47.74912 | -52.96039 | 3487 ft | 205 kts | 88° |
| 2026-04-29 19:09 | 47.74978 | -52.93985 | 3356 ft | 194 kts | 95° |
| 2026-04-29 19:09 | 47.74760 | -52.92068 | 3240 ft | 186 kts | 111° |
| 2026-04-29 19:09 | 47.74110 | -52.90426 | 3134 ft | 185 kts | 126° |
| 2026-04-29 19:10 | 47.73266 | -52.88969 | 3030 ft | 187 kts | 140° |
| 2026-04-29 19:10 | 47.72287 | -52.87771 | 3004 ft | 184 kts | 140° |
| 2026-04-29 19:10 | 47.71337 | -52.86493 | 2871 ft | 184 kts | 137° |
| 2026-04-29 19:10 | 47.70384 | -52.85208 | 2605 ft | 185 kts | 140° |
| 2026-04-29 19:11 | 47.69425 | -52.83969 | 2344 ft | 179 kts | 140° |
| 2026-04-29 19:11 | 47.68518 | -52.82801 | 2142 ft | 166 kts | 141° |
| 2026-04-29 19:11 | 47.67669 | -52.81706 | 1888 ft | 158 kts | 141° |
| 2026-04-29 19:11 | 47.66872 | -52.80681 | 1661 ft | 146 kts | 141° |
| 2026-04-29 19:12 | 47.66132 | -52.79729 | 1466 ft | 136 kts | 140° |
| 2026-04-29 19:12 | 47.65445 | -52.78848 | 1258 ft | 128 kts | 141° |
| 2026-04-29 19:12 | 47.64788 | -52.78014 | 1035 ft | 122 kts | 142° |
| 2026-04-29 19:12 | 47.64366 | -52.77454 | 935 ft | 121 kts | 140° |
| 2026-04-29 19:13 | 47.63524 | -52.76354 | 727 ft | 121 kts | 140° |
| 2026-04-29 19:13 | 47.62884 | -52.75554 | 602 ft | 121 kts | 140° |
| 2026-04-29 19:13 | 47.62246 | -52.74748 | 474 ft | 119 kts | 139° |
| 2026-04-29 19:13 | 47.61665 | -52.74007 | 428 ft | 88 kts | 139° |
| 2026-04-29 19:14 | 47.61431 | -52.73707 | 426 ft | 0 kts | 139° |
| 2026-04-29 19:14 | 47.61420 | -52.73693 | 422 ft | 6 kts | 139° |
| 2026-04-29 19:14 | 47.61376 | -52.73636 | 418 ft | 11 kts | 139° |
| 2026-04-29 19:14 | 47.61303 | -52.73543 | 416 ft | 16 kts | 139° |
| 2026-04-29 19:15 | 47.61215 | -52.73434 | 421 ft | 17 kts | 144° |
| 2026-04-29 19:15 | 47.61119 | -52.73429 | 423 ft | 4 kts | 238° |
| 2026-04-29 19:15 | 47.61118 | -52.73436 | 423 ft | 0 kts | 250° |
| 2026-04-29 19:16 | 47.61121 | -52.73464 | 417 ft | 8 kts | 284° |
| 2026-04-29 19:16 | 47.61160 | -52.73589 | 427 ft | 14 kts | 298° |
| 2026-04-29 19:16 | 47.61205 | -52.73711 | 426 ft | 12 kts | 299° |
| 2026-04-29 19:16 | 47.61241 | -52.73810 | 448 ft | 9 kts | 296° |
| 2026-04-29 19:17 | 47.61264 | -52.73885 | 453 ft | 7 kts | 294° |
| 2026-04-29 19:17 | 47.61281 | -52.73938 | 455 ft | 6 kts | 301° |
| 2026-04-29 19:17 | 47.61324 | -52.73977 | 455 ft | 9 kts | 345° |
| 2026-04-29 19:17 | 47.61357 | -52.73996 | 455 ft | 0 kts | 328° |
| 2026-04-29 19:18 | 47.61364 | -52.74006 | 455 ft | 5 kts | 318° |
| 2026-04-29 19:18 | 47.61392 | -52.74097 | 455 ft | 13 kts | 271° |
| 2026-04-29 19:19 | 47.61368 | -52.74183 | 455 ft | 0 kts | 236° |